Time,TemperatureF,DewpointF,PressureIn,WindDirection,WindDirectionDegrees,WindSpeedMPH,WindSpeedGustMPH,Humidity,HourlyPrecipIn,Conditions,Clouds,dailyrainin,SoftwareType,DateUTC
2013-04-29 00:03:00,50.7,49.0,30.02,South,170,1.2,1.2,93,0.00,,,0.00,TxWx,2013-04-29 05:03:00,
2013-04-29 00:08:00,50.2,48.0,30.02,South,169,1.8,1.8,93,0.00,,,0.00,TxWx,2013-04-29 05:08:00,
2013-04-29 00:13:00,50.8,49.0,30.02,South,169,2.1,2.4,93,0.00,,,0.00,TxWx,2013-04-29 05:13:00,
2013-04-29 00:18:00,50.6,49.0,30.02,South,170,2.1,2.4,93,0.00,,,0.00,TxWx,2013-04-29 05:18:00,
2013-04-29 00:24:00,50.3,48.0,30.02,South,170,0.9,0.9,93,0.00,,,0.00,TxWx,2013-04-29 05:24:00,
2013-04-29 00:29:00,50.5,48.0,30.02,South,171,3.0,3.0,93,0.00,,,0.00,TxWx,2013-04-29 05:29:00,
2013-04-29 00:34:00,51.2,49.0,30.02,South,170,5.1,5.4,94,0.00,,,0.00,TxWx,2013-04-29 05:34:00,
2013-04-29 00:39:00,51.0,49.0,30.03,South,172,2.4,2.4,94,0.00,,,0.00,TxWx,2013-04-29 05:39:00,
2013-04-29 00:44:00,51.1,49.0,30.03,South,170,2.1,2.4,94,0.00,,,0.00,TxWx,2013-04-29 05:44:00,
2013-04-29 00:49:00,51.5,50.0,30.03,South,171,4.2,4.5,94,0.00,,,0.00,TxWx,2013-04-29 05:49:00,
2013-04-29 00:54:00,51.6,50.0,30.03,South,173,2.4,2.7,94,0.00,,,0.00,TxWx,2013-04-29 05:54:00,
2013-04-29 01:00:00,51.7,50.0,30.03,South,171,2.1,2.4,94,0.00,,,0.00,TxWx,2013-04-29 06:00:00,
2013-04-29 01:05:00,51.2,49.0,30.03,South,171,3.6,3.9,93,0.00,,,0.00,TxWx,2013-04-29 06:05:00,
2013-04-29 01:10:00,52.2,50.0,30.03,South,173,5.4,5.7,94,0.00,,,0.00,TxWx,2013-04-29 06:10:00,
2013-04-29 01:15:00,52.9,51.0,30.03,South,172,4.2,4.2,94,0.00,,,0.00,TxWx,2013-04-29 06:15:00,
2013-04-29 01:20:00,52.9,51.0,30.03,South,171,2.7,3.3,94,0.00,,,0.00,TxWx,2013-04-29 06:20:00,
2013-04-29 01:25:00,52.7,51.0,30.03,South,171,1.2,1.5,93,0.00,,,0.00,TxWx,2013-04-29 06:25:00,
2013-04-29 01:30:00,52.6,51.0,30.02,South,171,2.7,3.0,93,0.00,,,0.00,TxWx,2013-04-29 06:30:00,
2013-04-29 01:35:00,52.4,50.0,30.03,South,172,2.4,2.7,93,0.00,,,0.00,TxWx,2013-04-29 06:35:00,
2013-04-29 01:41:00,52.5,51.0,30.03,South,173,1.8,1.8,93,0.00,,,0.00,TxWx,2013-04-29 06:41:00,
2013-04-29 01:46:00,52.5,51.0,30.03,South,172,2.1,2.4,93,0.00,,,0.00,TxWx,2013-04-29 06:46:00,
2013-04-29 01:51:00,52.8,51.0,30.03,South,172,2.7,2.7,93,0.00,,,0.00,TxWx,2013-04-29 06:51:00,
2013-04-29 01:56:00,53.0,51.0,30.03,South,174,3.0,3.0,94,0.00,,,0.00,TxWx,2013-04-29 06:56:00,
2013-04-29 02:01:00,53.6,52.0,30.02,South,175,3.6,4.2,94,0.00,,,0.00,TxWx,2013-04-29 07:01:00,
2013-04-29 02:06:00,53.6,52.0,30.03,South,173,3.6,4.2,94,0.00,,,0.00,TxWx,2013-04-29 07:06:00,
2013-04-29 02:12:00,53.7,52.0,30.02,South,175,2.4,3.0,94,0.00,,,0.00,TxWx,2013-04-29 07:12:00,
2013-04-29 02:17:00,53.5,52.0,30.02,South,175,2.7,2.7,93,0.00,,,0.00,TxWx,2013-04-29 07:17:00,
2013-04-29 02:22:00,53.6,52.0,30.02,South,173,3.3,4.2,93,0.00,,,0.00,TxWx,2013-04-29 07:22:00,
2013-04-29 02:27:00,53.7,52.0,30.02,South,176,3.6,3.9,94,0.00,,,0.00,TxWx,2013-04-29 07:27:00,
2013-04-29 02:32:00,54.1,52.0,30.02,South,174,3.9,3.9,94,0.00,,,0.00,TxWx,2013-04-29 07:32:00,
2013-04-29 02:37:00,54.1,52.0,30.02,South,175,6.6,6.6,94,0.00,,,0.00,TxWx,2013-04-29 07:37:00,
2013-04-29 02:42:00,54.1,52.0,30.02,South,175,4.2,4.8,94,0.00,,,0.00,TxWx,2013-04-29 07:42:00,
2013-04-29 02:47:00,54.2,52.0,30.02,South,174,3.6,3.9,94,0.00,,,0.00,TxWx,2013-04-29 07:47:00,
2013-04-29 02:52:00,54.1,52.0,30.02,South,173,3.3,3.3,94,0.00,,,0.00,TxWx,2013-04-29 07:52:00,
2013-04-29 02:58:00,54.1,52.0,30.02,South,173,3.9,3.9,94,0.00,,,0.00,TxWx,2013-04-29 07:58:00,
2013-04-29 03:03:00,54.1,52.0,30.02,South,175,3.0,3.3,94,0.00,,,0.00,TxWx,2013-04-29 08:03:00,
2013-04-29 03:08:00,54.2,52.0,30.02,South,173,5.4,5.4,94,0.00,,,0.00,TxWx,2013-04-29 08:08:00,
2013-04-29 03:13:00,54.1,52.0,30.02,South,173,3.0,3.3,94,0.00,,,0.00,TxWx,2013-04-29 08:13:00,
2013-04-29 03:18:00,54.0,52.0,30.02,South,173,3.9,3.9,94,0.00,,,0.00,TxWx,2013-04-29 08:18:00,
2013-04-29 03:23:00,54.0,52.0,30.02,South,174,4.2,4.2,94,0.00,,,0.00,TxWx,2013-04-29 08:23:00,
2013-04-29 03:28:00,54.0,52.0,30.02,South,174,4.8,5.1,94,0.00,,,0.00,TxWx,2013-04-29 08:28:00,
2013-04-29 03:34:00,54.0,52.0,30.03,South,173,3.0,3.9,94,0.00,,,0.00,TxWx,2013-04-29 08:34:00,
2013-04-29 03:39:00,54.0,52.0,30.03,South,173,5.4,5.4,94,0.00,,,0.00,TxWx,2013-04-29 08:39:00,
2013-04-29 03:44:00,54.0,52.0,30.03,South,172,2.7,2.7,94,0.00,,,0.00,TxWx,2013-04-29 08:44:00,
2013-04-29 03:49:00,54.0,52.0,30.03,South,174,4.5,5.4,94,0.00,,,0.00,TxWx,2013-04-29 08:49:00,
2013-04-29 03:55:00,54.0,52.0,30.03,South,172,3.0,3.9,94,0.00,,,0.00,TxWx,2013-04-29 08:55:00,
2013-04-29 04:00:00,54.1,52.0,30.03,South,171,3.9,4.8,94,0.00,,,0.00,TxWx,2013-04-29 09:00:00,
2013-04-29 04:05:00,54.0,52.0,30.03,South,173,4.8,4.8,94,0.00,,,0.00,TxWx,2013-04-29 09:05:00,
2013-04-29 04:10:00,54.0,52.0,30.04,South,174,3.9,3.9,94,0.00,,,0.00,TxWx,2013-04-29 09:10:00,
2013-04-29 04:16:00,53.9,52.0,30.04,South,172,3.6,3.6,94,0.00,,,0.00,TxWx,2013-04-29 09:16:00,
2013-04-29 04:21:00,54.0,52.0,30.04,South,173,3.3,3.3,94,0.00,,,0.00,TxWx,2013-04-29 09:21:00,
2013-04-29 04:26:00,53.9,52.0,30.04,South,174,4.5,4.5,94,0.00,,,0.00,TxWx,2013-04-29 09:26:00,
2013-04-29 04:31:00,53.7,52.0,30.04,South,170,3.9,4.2,93,0.00,,,0.00,TxWx,2013-04-29 09:31:00,
2013-04-29 04:37:00,53.6,52.0,30.05,South,170,3.9,4.5,93,0.00,,,0.00,TxWx,2013-04-29 09:37:00,
2013-04-29 04:42:00,53.6,52.0,30.05,South,172,2.7,3.3,93,0.00,,,0.00,TxWx,2013-04-29 09:42:00,
2013-04-29 04:47:00,53.5,52.0,30.05,South,172,3.0,3.0,93,0.00,,,0.00,TxWx,2013-04-29 09:47:00,
2013-04-29 04:52:00,53.4,51.0,30.05,SSE,167,3.3,3.9,93,0.00,,,0.00,TxWx,2013-04-29 09:52:00,
2013-04-29 04:57:00,53.5,51.0,30.05,SSE,162,7.2,7.2,93,0.00,,,0.00,TxWx,2013-04-29 09:57:00,
2013-04-29 05:03:00,53.5,51.0,30.05,SSE,162,3.3,3.3,93,0.00,,,0.00,TxWx,2013-04-29 10:03:00,
2013-04-29 05:08:00,53.5,51.0,30.05,SSE,163,4.2,4.2,93,0.00,,,0.00,TxWx,2013-04-29 10:08:00,
2013-04-29 05:13:00,53.5,51.0,30.05,SSE,161,4.5,4.8,93,0.00,,,0.00,TxWx,2013-04-29 10:13:00,
2013-04-29 05:18:00,53.4,51.0,30.05,SSE,162,4.5,4.8,93,0.00,,,0.00,TxWx,2013-04-29 10:18:00,
2013-04-29 05:23:00,53.3,51.0,30.06,SSE,162,2.7,3.0,92,0.00,,,0.00,TxWx,2013-04-29 10:23:00,
2013-04-29 05:29:00,53.3,51.0,30.06,SSE,163,5.1,5.7,92,0.00,,,0.00,TxWx,2013-04-29 10:29:00,
2013-04-29 05:34:00,53.1,51.0,30.06,SSE,163,2.4,2.7,92,0.00,,,0.00,TxWx,2013-04-29 10:34:00,
2013-04-29 05:39:00,52.9,51.0,30.06,SSE,162,4.2,4.2,92,0.00,,,0.00,TxWx,2013-04-29 10:39:00,
2013-04-29 05:44:00,52.8,51.0,30.06,SSE,163,3.3,3.6,92,0.00,,,0.00,TxWx,2013-04-29 10:44:00,
2013-04-29 05:50:00,52.7,51.0,30.06,SSE,162,5.1,6.6,92,0.00,,,0.00,TxWx,2013-04-29 10:50:00,
2013-04-29 05:55:00,52.7,51.0,30.07,SSE,161,6.3,6.3,92,0.00,,,0.00,TxWx,2013-04-29 10:55:00,
2013-04-29 06:00:00,52.8,51.0,30.07,SSE,161,4.2,4.8,92,0.00,,,0.00,TxWx,2013-04-29 11:00:00,
2013-04-29 06:05:00,52.7,51.0,30.07,SSE,161,5.1,5.4,92,0.00,,,0.00,TxWx,2013-04-29 11:05:00,
2013-04-29 06:10:00,52.6,51.0,30.07,SSE,161,5.4,5.7,92,0.00,,,0.00,TxWx,2013-04-29 11:10:00,
2013-04-29 06:16:00,52.5,51.0,30.07,SSE,161,4.5,4.5,92,0.00,,,0.00,TxWx,2013-04-29 11:16:00,
2013-04-29 06:21:00,52.5,51.0,30.08,SSE,161,6.0,6.0,92,0.00,,,0.00,TxWx,2013-04-29 11:21:00,
2013-04-29 06:26:00,52.5,50.0,30.08,SSE,161,5.4,5.4,92,0.00,,,0.00,TxWx,2013-04-29 11:26:00,
2013-04-29 06:32:00,52.4,50.0,30.08,SSE,162,2.4,3.6,92,0.00,,,0.00,TxWx,2013-04-29 11:32:00,
2013-04-29 06:38:00,52.5,50.0,30.08,SSE,161,5.4,5.4,92,0.00,,,0.00,TxWx,2013-04-29 11:38:00,
2013-04-29 06:43:00,52.4,50.0,30.08,SSE,161,6.6,6.9,92,0.00,,,0.00,TxWx,2013-04-29 11:43:00,
2013-04-29 06:48:00,52.5,51.0,30.09,SSE,161,3.0,3.0,92,0.00,,,0.00,TxWx,2013-04-29 11:48:00,
2013-04-29 06:53:00,52.7,51.0,30.09,SSE,162,5.1,6.3,92,0.00,,,0.00,TxWx,2013-04-29 11:53:00,
2013-04-29 06:58:00,52.8,51.0,30.09,SSE,162,3.6,3.9,92,0.00,,,0.00,TxWx,2013-04-29 11:58:00,
2013-04-29 07:04:00,53.0,51.0,30.09,SSE,162,4.2,4.5,92,0.00,,,0.00,TxWx,2013-04-29 12:04:00,
2013-04-29 07:09:00,53.3,51.0,30.09,SSE,162,3.9,3.9,92,0.00,,,0.00,TxWx,2013-04-29 12:09:00,
2013-04-29 07:14:00,53.3,50.0,30.09,SSE,162,5.1,5.1,91,0.00,,,0.00,TxWx,2013-04-29 12:14:00,
2013-04-29 07:20:00,53.5,51.0,30.09,SSE,162,4.5,4.5,91,0.00,,,0.00,TxWx,2013-04-29 12:20:00,
2013-04-29 07:25:00,53.9,51.0,30.10,SSE,161,5.4,5.4,91,0.00,,,0.00,TxWx,2013-04-29 12:25:00,
2013-04-29 07:30:00,54.0,51.0,30.10,SSE,162,2.7,2.7,90,0.00,,,0.00,TxWx,2013-04-29 12:30:00,
2013-04-29 07:36:00,54.3,51.0,30.10,SSE,161,3.6,3.9,90,0.00,,,0.00,TxWx,2013-04-29 12:36:00,
2013-04-29 07:41:00,54.6,52.0,30.10,SSE,161,5.1,5.7,89,0.00,,,0.00,TxWx,2013-04-29 12:41:00,
2013-04-29 07:46:00,54.8,52.0,30.10,SSE,162,8.7,8.7,89,0.00,,,0.00,TxWx,2013-04-29 12:46:00,
2013-04-29 07:51:00,55.1,52.0,30.10,SSE,162,4.5,4.5,88,0.00,,,0.00,TxWx,2013-04-29 12:51:00,
2013-04-29 07:56:00,55.1,51.0,30.09,SSE,161,5.4,6.0,88,0.00,,,0.00,TxWx,2013-04-29 12:56:00,
2013-04-29 08:02:00,55.4,51.0,30.10,SSE,162,3.9,4.2,87,0.00,,,0.00,TxWx,2013-04-29 13:02:00,
2013-04-29 08:07:00,56.0,52.0,30.10,SSE,161,3.6,3.9,87,0.00,,,0.00,TxWx,2013-04-29 13:07:00,
2013-04-29 08:12:00,56.3,52.0,30.10,SSE,162,3.3,3.9,86,0.00,,,0.00,TxWx,2013-04-29 13:12:00,
2013-04-29 08:17:00,56.9,53.0,30.09,SSE,161,3.0,3.0,86,0.00,,,0.00,TxWx,2013-04-29 13:17:00,
2013-04-29 08:22:00,57.5,53.0,30.10,SSE,162,3.9,3.9,85,0.00,,,0.00,TxWx,2013-04-29 13:22:00,
2013-04-29 08:27:00,58.0,53.0,30.09,SSE,163,4.2,4.2,83,0.00,,,0.00,TxWx,2013-04-29 13:27:00,
2013-04-29 08:32:00,58.7,53.0,30.09,SSE,162,3.9,3.9,81,0.00,,,0.00,TxWx,2013-04-29 13:32:00,
2013-04-29 08:38:00,59.3,52.0,30.09,SSE,162,5.7,5.7,79,0.00,,,0.00,TxWx,2013-04-29 13:38:00,
2013-04-29 08:43:00,59.7,53.0,30.09,SSE,162,8.7,9.0,78,0.00,,,0.00,TxWx,2013-04-29 13:43:00,
2013-04-29 08:48:00,60.1,52.0,30.09,SSE,161,2.7,2.7,76,0.00,,,0.00,TxWx,2013-04-29 13:48:00,
2013-04-29 08:53:00,59.7,52.0,30.09,SSE,161,4.5,5.1,74,0.00,,,0.00,TxWx,2013-04-29 13:53:00,
2013-04-29 08:58:00,60.4,52.0,30.09,SSE,161,6.0,6.6,75,0.00,,,0.00,TxWx,2013-04-29 13:58:00,
2013-04-29 09:03:00,61.0,52.0,30.09,SSE,161,4.8,6.0,73,0.00,,,0.00,TxWx,2013-04-29 14:03:00,
2013-04-29 09:09:00,61.7,53.0,30.09,SSE,161,7.5,7.5,72,0.00,,,0.00,TxWx,2013-04-29 14:09:00,
2013-04-29 09:14:00,62.3,52.0,30.09,SSE,161,7.2,8.4,71,0.00,,,0.00,TxWx,2013-04-29 14:14:00,
2013-04-29 09:19:00,62.4,52.0,30.09,SSE,161,4.5,4.8,70,0.00,,,0.00,TxWx,2013-04-29 14:19:00,
2013-04-29 09:24:00,63.2,53.0,30.09,SSE,161,4.5,4.5,70,0.00,,,0.00,TxWx,2013-04-29 14:24:00,
2013-04-29 09:29:00,62.6,53.0,30.09,SSE,161,4.2,4.8,69,0.00,,,0.00,TxWx,2013-04-29 14:29:00,
2013-04-29 09:35:00,63.5,53.0,30.09,SSE,161,2.1,2.1,68,0.00,,,0.00,TxWx,2013-04-29 14:35:00,
2013-04-29 09:40:00,62.9,51.0,30.09,SSE,161,3.9,4.5,66,0.00,,,0.00,TxWx,2013-04-29 14:40:00,
2013-04-29 09:45:00,63.5,52.0,30.09,SSE,161,11.4,11.4,66,0.00,,,0.00,TxWx,2013-04-29 14:45:00,
2013-04-29 09:50:00,63.9,52.0,30.08,SSE,161,6.6,6.6,64,0.00,,,0.00,TxWx,2013-04-29 14:50:00,
2013-04-29 09:55:00,64.4,52.0,30.08,SSE,161,5.1,5.7,65,0.00,,,0.00,TxWx,2013-04-29 14:55:00,
2013-04-29 10:01:00,64.3,51.0,30.08,SSE,161,5.4,6.0,64,0.00,,,0.00,TxWx,2013-04-29 15:01:00,
2013-04-29 10:06:00,64.3,51.0,30.08,SSE,161,9.9,10.8,62,0.00,,,0.00,TxWx,2013-04-29 15:06:00,
2013-04-29 10:11:00,65.0,51.0,30.08,SSE,161,6.9,6.9,60,0.00,,,0.00,TxWx,2013-04-29 15:11:00,
2013-04-29 10:16:00,65.2,51.0,30.08,SSE,161,6.3,6.3,62,0.00,,,0.00,TxWx,2013-04-29 15:16:00,
2013-04-29 10:21:00,64.6,51.0,30.08,SSE,161,9.0,9.9,61,0.00,,,0.00,TxWx,2013-04-29 15:21:00,
2013-04-29 10:27:00,65.2,52.0,30.08,SSE,161,4.2,4.2,62,0.00,,,0.00,TxWx,2013-04-29 15:27:00,
2013-04-29 10:32:00,65.8,52.0,30.08,SSE,161,10.8,12.3,61,0.00,,,0.00,TxWx,2013-04-29 15:32:00,
2013-04-29 10:37:00,65.8,52.0,30.08,SSE,161,5.1,5.7,61,0.00,,,0.00,TxWx,2013-04-29 15:37:00,
2013-04-29 10:42:00,66.2,51.0,30.08,SSE,161,9.0,9.0,59,0.00,,,0.00,TxWx,2013-04-29 15:42:00,
2013-04-29 10:47:00,65.5,50.0,30.08,SSE,161,11.7,13.2,58,0.00,,,0.00,TxWx,2013-04-29 15:47:00,
2013-04-29 10:52:00,67.0,52.0,30.08,SSE,161,11.4,11.4,60,0.00,,,0.00,TxWx,2013-04-29 15:52:00,
2013-04-29 10:57:00,66.5,51.0,30.08,SSE,161,4.2,4.5,58,0.00,,,0.00,TxWx,2013-04-29 15:57:00,
2013-04-29 11:03:00,66.3,51.0,30.08,SSE,161,10.2,10.2,59,0.00,,,0.00,TxWx,2013-04-29 16:03:00,
2013-04-29 11:08:00,66.1,51.0,30.07,SSE,161,14.4,14.4,58,0.00,,,0.00,TxWx,2013-04-29 16:08:00,
2013-04-29 11:13:00,66.2,50.0,30.07,SSE,161,13.2,13.2,57,0.00,,,0.00,TxWx,2013-04-29 16:13:00,
2013-04-29 11:18:00,66.1,50.0,30.07,SSE,161,12.9,13.2,57,0.00,,,0.00,TxWx,2013-04-29 16:18:00,
2013-04-29 11:23:00,66.6,51.0,30.07,SSE,161,11.4,12.6,58,0.00,,,0.00,TxWx,2013-04-29 16:23:00,
2013-04-29 11:29:00,67.1,51.0,30.07,SSE,161,17.4,20.1,57,0.00,,,0.00,TxWx,2013-04-29 16:29:00,
2013-04-29 11:34:00,67.3,51.0,30.07,SSE,162,11.7,11.7,57,0.00,,,0.00,TxWx,2013-04-29 16:34:00,
2013-04-29 11:39:00,66.5,51.0,30.07,SSE,162,9.0,11.1,57,0.00,,,0.00,TxWx,2013-04-29 16:39:00,
2013-04-29 11:44:00,67.3,52.0,30.07,SSE,163,4.8,4.8,59,0.00,,,0.00,TxWx,2013-04-29 16:44:00,
2013-04-29 11:49:00,67.6,52.0,30.07,SSE,162,12.6,12.6,58,0.00,,,0.00,TxWx,2013-04-29 16:49:00,
2013-04-29 11:54:00,66.9,51.0,30.07,SSE,162,14.7,14.7,57,0.00,,,0.00,TxWx,2013-04-29 16:54:00,
2013-04-29 11:59:00,67.4,52.0,30.06,SSE,162,7.8,9.3,58,0.00,,,0.00,TxWx,2013-04-29 16:59:00,
2013-04-29 12:05:00,67.6,52.0,30.06,SSE,163,9.3,9.3,57,0.00,,,0.00,TxWx,2013-04-29 17:05:00,
2013-04-29 12:10:00,68.0,51.0,30.06,SSE,163,7.8,10.5,55,0.00,,,0.00,TxWx,2013-04-29 17:10:00,
2013-04-29 12:15:00,68.4,51.0,30.06,SSE,162,7.5,7.5,56,0.00,,,0.00,TxWx,2013-04-29 17:15:00,
2013-04-29 12:20:00,67.9,51.0,30.06,SSE,163,13.8,14.4,55,0.00,,,0.00,TxWx,2013-04-29 17:20:00,
2013-04-29 12:25:00,67.7,51.0,30.06,SSE,162,14.1,14.1,56,0.00,,,0.00,TxWx,2013-04-29 17:25:00,
2013-04-29 12:30:00,67.8,51.0,30.06,SSE,162,14.4,14.4,55,0.00,,,0.00,TxWx,2013-04-29 17:30:00,
2013-04-29 12:35:00,68.7,52.0,30.06,SSE,162,14.7,14.7,56,0.00,,,0.00,TxWx,2013-04-29 17:35:00,
2013-04-29 12:40:00,67.6,51.0,30.05,SSE,162,11.1,12.3,55,0.00,,,0.00,TxWx,2013-04-29 17:40:00,
2013-04-29 12:45:00,67.5,50.0,30.05,SSE,162,14.4,15.6,55,0.00,,,0.00,TxWx,2013-04-29 17:45:00,
2013-04-29 12:50:00,68.2,51.0,30.05,SSE,162,9.0,9.0,54,0.00,,,0.00,TxWx,2013-04-29 17:50:00,
2013-04-29 12:56:00,68.5,51.0,30.05,SSE,162,12.9,14.7,54,0.00,,,0.00,TxWx,2013-04-29 17:56:00,
2013-04-29 13:01:00,68.4,50.0,30.05,SSE,162,14.7,14.7,54,0.00,,,0.00,TxWx,2013-04-29 18:01:00,
2013-04-29 13:06:00,68.3,50.0,30.05,SSE,162,13.5,15.3,53,0.00,,,0.00,TxWx,2013-04-29 18:06:00,
2013-04-29 13:11:00,68.1,50.0,30.05,SSE,162,12.9,13.2,53,0.00,,,0.00,TxWx,2013-04-29 18:11:00,
2013-04-29 13:16:00,68.3,50.0,30.05,SSE,162,13.8,13.8,53,0.00,,,0.00,TxWx,2013-04-29 18:16:00,
2013-04-29 13:21:00,68.3,50.0,30.05,SSE,162,11.4,11.4,53,0.00,,,0.00,TxWx,2013-04-29 18:21:00,
2013-04-29 13:26:00,68.5,51.0,30.05,SSE,162,15.0,15.0,53,0.00,,,0.00,TxWx,2013-04-29 18:26:00,
2013-04-29 13:32:00,69.0,51.0,30.05,SSE,162,11.4,12.3,53,0.00,,,0.00,TxWx,2013-04-29 18:32:00,
2013-04-29 13:37:00,68.7,51.0,30.04,SSE,162,10.2,11.1,53,0.00,,,0.00,TxWx,2013-04-29 18:37:00,
2013-04-29 13:42:00,69.0,51.0,30.05,SSE,162,13.8,13.8,53,0.00,,,0.00,TxWx,2013-04-29 18:42:00,
2013-04-29 13:47:00,69.0,51.0,30.04,SSE,162,13.5,13.5,53,0.00,,,0.00,TxWx,2013-04-29 18:47:00,
2013-04-29 13:52:00,69.6,52.0,30.05,SSE,161,7.8,8.4,54,0.00,,,0.00,TxWx,2013-04-29 18:52:00,
2013-04-29 13:57:00,69.1,50.0,30.05,SSE,161,14.4,14.4,51,0.00,,,0.00,TxWx,2013-04-29 18:57:00,
2013-04-29 14:03:00,69.7,52.0,30.04,SSE,161,12.3,12.3,54,0.00,,,0.00,TxWx,2013-04-29 19:03:00,
2013-04-29 14:08:00,69.0,51.0,30.04,SSE,161,15.0,15.3,52,0.00,,,0.00,TxWx,2013-04-29 19:08:00,
2013-04-29 14:13:00,69.4,50.0,30.04,SSE,161,11.1,11.1,52,0.00,,,0.00,TxWx,2013-04-29 19:13:00,
2013-04-29 14:18:00,69.2,50.0,30.03,SSE,161,12.9,12.9,51,0.00,,,0.00,TxWx,2013-04-29 19:18:00,
2013-04-29 14:23:00,69.8,51.0,30.03,SSE,162,10.2,13.8,51,0.00,,,0.00,TxWx,2013-04-29 19:23:00,
2013-04-29 14:29:00,70.1,51.0,30.03,SSE,161,17.4,17.4,52,0.00,,,0.00,TxWx,2013-04-29 19:29:00,
2013-04-29 14:34:00,70.3,52.0,30.02,SSE,161,14.1,14.7,52,0.00,,,0.00,TxWx,2013-04-29 19:34:00,
2013-04-29 14:39:00,69.7,51.0,30.02,SSE,161,9.0,9.0,51,0.00,,,0.00,TxWx,2013-04-29 19:39:00,
2013-04-29 14:44:00,71.0,52.0,30.02,SSE,161,11.7,13.8,52,0.00,,,0.00,TxWx,2013-04-29 19:44:00,
2013-04-29 14:49:00,69.8,51.0,30.02,SSE,161,17.1,17.1,51,0.00,,,0.00,TxWx,2013-04-29 19:49:00,
2013-04-29 14:55:00,70.7,53.0,30.02,SSE,161,12.6,13.8,53,0.00,,,0.00,TxWx,2013-04-29 19:55:00,
2013-04-29 15:00:00,70.5,51.0,30.01,SSE,162,9.0,9.3,50,0.00,,,0.00,TxWx,2013-04-29 20:00:00,
2013-04-29 15:05:00,70.2,50.0,30.02,SSE,162,10.8,10.8,50,0.00,,,0.00,TxWx,2013-04-29 20:05:00,
2013-04-29 15:10:00,71.0,52.0,30.01,SSE,162,7.5,7.5,52,0.00,,,0.00,TxWx,2013-04-29 20:10:00,
2013-04-29 15:16:00,70.8,51.0,30.01,SSE,162,18.0,18.0,50,0.00,,,0.00,TxWx,2013-04-29 20:16:00,
2013-04-29 15:21:00,70.8,51.0,30.01,SSE,162,13.2,15.3,50,0.00,,,0.00,TxWx,2013-04-29 20:21:00,
2013-04-29 15:26:00,70.4,50.0,30.01,SSE,162,12.6,12.6,50,0.00,,,0.00,TxWx,2013-04-29 20:26:00,
2013-04-29 15:31:00,70.9,52.0,30.01,SSE,163,10.5,10.8,51,0.00,,,0.00,TxWx,2013-04-29 20:31:00,
2013-04-29 15:37:00,70.7,51.0,30.01,SSE,162,20.7,21.0,49,0.00,,,0.00,TxWx,2013-04-29 20:37:00,
2013-04-29 15:42:00,71.1,51.0,30.00,SSE,162,13.5,13.5,49,0.00,,,0.00,TxWx,2013-04-29 20:42:00,
2013-04-29 15:47:00,71.2,51.0,30.00,SSE,162,10.8,10.8,49,0.00,,,0.00,TxWx,2013-04-29 20:47:00,
2013-04-29 15:52:00,71.1,51.0,30.00,SSE,162,11.4,13.5,49,0.00,,,0.00,TxWx,2013-04-29 20:52:00,
2013-04-29 15:57:00,70.6,51.0,30.00,SSE,162,11.4,11.4,49,0.00,,,0.00,TxWx,2013-04-29 20:57:00,
2013-04-29 16:03:00,70.8,51.0,30.00,SSE,162,15.3,15.3,49,0.00,,,0.00,TxWx,2013-04-29 21:03:00,
2013-04-29 16:08:00,71.2,50.0,30.00,SSE,162,12.3,12.3,48,0.00,,,0.00,TxWx,2013-04-29 21:08:00,
2013-04-29 16:13:00,70.9,51.0,30.00,SSE,162,19.2,20.4,50,0.00,,,0.00,TxWx,2013-04-29 21:13:00,
2013-04-29 16:18:00,70.8,51.0,30.00,SSE,162,10.2,10.2,50,0.00,,,0.00,TxWx,2013-04-29 21:18:00,
2013-04-29 16:23:00,71.4,51.0,30.00,SSE,163,11.1,11.1,50,0.00,,,0.00,TxWx,2013-04-29 21:23:00,
2013-04-29 16:28:00,71.0,50.0,30.00,SSE,162,13.2,13.2,48,0.00,,,0.00,TxWx,2013-04-29 21:28:00,
2013-04-29 16:34:00,71.6,51.0,30.00,SSE,163,11.4,12.3,49,0.00,,,0.00,TxWx,2013-04-29 21:34:00,
2013-04-29 16:39:00,71.0,51.0,30.00,SSE,163,17.4,17.7,49,0.00,,,0.00,TxWx,2013-04-29 21:39:00,
2013-04-29 16:44:00,70.8,51.0,30.00,SSE,162,11.4,13.5,49,0.00,,,0.00,TxWx,2013-04-29 21:44:00,
2013-04-29 16:49:00,71.8,52.0,30.00,SSE,162,8.7,8.7,50,0.00,,,0.00,TxWx,2013-04-29 21:49:00,
2013-04-29 16:54:00,71.0,51.0,30.00,SSE,162,12.6,12.6,49,0.00,,,0.00,TxWx,2013-04-29 21:54:00,
2013-04-29 16:59:00,71.4,51.0,30.00,SSE,162,11.7,13.2,49,0.00,,,0.00,TxWx,2013-04-29 21:59:00,
2013-04-29 17:04:00,71.3,51.0,30.00,SSE,162,9.3,11.4,49,0.00,,,0.00,TxWx,2013-04-29 22:04:00,
2013-04-29 17:10:00,71.4,51.0,30.00,SSE,162,7.8,8.7,50,0.00,,,0.00,TxWx,2013-04-29 22:10:00,
2013-04-29 17:15:00,71.9,52.0,30.00,SSE,162,6.0,6.0,49,0.00,,,0.00,TxWx,2013-04-29 22:15:00,
2013-04-29 17:20:00,71.4,51.0,29.99,SSE,162,9.0,9.6,49,0.00,,,0.00,TxWx,2013-04-29 22:20:00,
2013-04-29 17:25:00,71.1,51.0,29.99,SSE,162,14.7,16.2,49,0.00,,,0.00,TxWx,2013-04-29 22:25:00,
2013-04-29 17:30:00,71.0,51.0,30.00,SSE,162,15.0,15.0,49,0.00,,,0.00,TxWx,2013-04-29 22:30:00,
2013-04-29 17:35:00,71.0,51.0,30.00,SSE,162,13.2,13.2,49,0.00,,,0.00,TxWx,2013-04-29 22:35:00,
2013-04-29 17:41:00,71.2,51.0,30.00,SSE,162,9.6,11.4,49,0.00,,,0.00,TxWx,2013-04-29 22:41:00,
2013-04-29 17:46:00,71.2,51.0,29.99,SSE,162,6.0,6.9,50,0.00,,,0.00,TxWx,2013-04-29 22:46:00,
2013-04-29 17:51:00,71.1,51.0,29.99,SSE,162,10.5,10.8,50,0.00,,,0.00,TxWx,2013-04-29 22:51:00,
2013-04-29 17:56:00,70.9,51.0,29.99,SSE,162,10.5,10.5,49,0.00,,,0.00,TxWx,2013-04-29 22:56:00,
2013-04-29 18:02:00,70.7,51.0,29.98,SSE,162,17.1,17.1,50,0.00,,,0.00,TxWx,2013-04-29 23:02:00,
2013-04-29 18:07:00,70.7,51.0,29.98,SSE,162,13.5,13.5,50,0.00,,,0.00,TxWx,2013-04-29 23:07:00,
2013-04-29 18:12:00,70.9,52.0,29.98,SSE,162,8.1,9.3,51,0.00,,,0.00,TxWx,2013-04-29 23:12:00,
2013-04-29 18:17:00,70.5,51.0,29.98,SSE,162,10.8,11.7,50,0.00,,,0.00,TxWx,2013-04-29 23:17:00,
2013-04-29 18:23:00,70.6,52.0,29.98,SSE,162,13.8,14.1,51,0.00,,,0.00,TxWx,2013-04-29 23:23:00,
2013-04-29 18:28:00,70.4,51.0,29.98,SSE,162,13.8,13.8,52,0.00,,,0.00,TxWx,2013-04-29 23:28:00,
2013-04-29 18:33:00,70.3,52.0,29.98,SSE,162,8.1,8.7,52,0.00,,,0.00,TxWx,2013-04-29 23:33:00,
2013-04-29 18:38:00,70.0,52.0,29.99,SSE,162,16.2,17.4,52,0.00,,,0.00,TxWx,2013-04-29 23:38:00,
2013-04-29 18:43:00,69.8,52.0,29.99,SSE,162,13.2,14.4,53,0.00,,,0.00,TxWx,2013-04-29 23:43:00,
2013-04-29 18:48:00,69.8,52.0,29.99,SSE,162,10.8,11.7,53,0.00,,,0.00,TxWx,2013-04-29 23:48:00,
2013-04-29 18:54:00,69.6,52.0,29.99,SSE,162,6.6,8.1,53,0.00,,,0.00,TxWx,2013-04-29 23:54:00,
2013-04-29 18:59:00,69.5,51.0,29.99,SSE,162,7.8,8.4,54,0.00,,,0.00,TxWx,2013-04-29 23:59:00,
2013-04-29 19:04:00,69.3,52.0,29.99,SSE,162,10.5,11.1,54,0.00,,,0.00,TxWx,2013-04-30 00:04:00,
2013-04-29 19:09:00,69.1,52.0,29.99,SSE,162,8.7,8.7,55,0.00,,,0.00,TxWx,2013-04-30 00:09:00,
2013-04-29 19:14:00,68.9,52.0,29.99,SSE,162,10.8,12.0,55,0.00,,,0.00,TxWx,2013-04-30 00:14:00,
2013-04-29 19:19:00,68.7,52.0,29.99,SSE,162,9.9,10.5,56,0.00,,,0.00,TxWx,2013-04-30 00:19:00,
2013-04-29 19:24:00,68.5,53.0,29.99,SSE,162,11.4,11.4,56,0.00,,,0.00,TxWx,2013-04-30 00:24:00,
2013-04-29 19:29:00,68.3,52.0,29.99,SSE,162,7.5,7.8,57,0.00,,,0.00,TxWx,2013-04-30 00:29:00,
2013-04-29 19:35:00,68.2,52.0,29.99,SSE,162,5.1,5.4,57,0.00,,,0.00,TxWx,2013-04-30 00:35:00,
2013-04-29 19:40:00,68.1,52.0,29.99,SSE,162,12.3,12.3,57,0.00,,,0.00,TxWx,2013-04-30 00:40:00,
2013-04-29 19:45:00,67.9,52.0,29.99,SSE,162,9.3,9.3,58,0.00,,,0.00,TxWx,2013-04-30 00:45:00,
2013-04-29 19:50:00,67.9,53.0,29.99,SSE,162,5.7,6.9,58,0.00,,,0.00,TxWx,2013-04-30 00:50:00,
2013-04-29 19:55:00,67.8,53.0,29.99,SSE,162,10.8,13.5,58,0.00,,,0.00,TxWx,2013-04-30 00:55:00,
2013-04-29 20:00:00,67.8,52.0,29.99,SSE,162,11.4,11.4,58,0.00,,,0.00,TxWx,2013-04-30 01:00:00,
2013-04-29 20:05:00,67.7,52.0,30.00,SSE,162,8.4,9.6,58,0.00,,,0.00,TxWx,2013-04-30 01:05:00,
2013-04-29 20:11:00,67.6,52.0,30.00,SSE,162,4.5,4.8,58,0.00,,,0.00,TxWx,2013-04-30 01:11:00,
2013-04-29 20:16:00,67.5,52.0,30.00,SSE,162,7.8,8.1,58,0.00,,,0.00,TxWx,2013-04-30 01:16:00,
2013-04-29 20:21:00,67.4,52.0,30.00,SSE,162,7.8,8.1,58,0.00,,,0.00,TxWx,2013-04-30 01:21:00,
2013-04-29 20:26:00,67.3,52.0,30.00,SSE,162,9.6,9.6,58,0.00,,,0.00,TxWx,2013-04-30 01:26:00,
2013-04-29 20:31:00,67.1,52.0,30.00,SSE,162,6.0,6.0,59,0.00,,,0.00,TxWx,2013-04-30 01:31:00,
2013-04-29 20:36:00,66.9,52.0,30.00,SSE,162,12.6,12.6,60,0.00,,,0.00,TxWx,2013-04-30 01:36:00,
2013-04-29 20:41:00,66.7,53.0,30.00,SSE,162,13.2,13.2,60,0.00,,,0.00,TxWx,2013-04-30 01:41:00,
2013-04-29 20:46:00,66.5,53.0,30.00,SSE,162,6.6,6.9,61,0.00,,,0.00,TxWx,2013-04-30 01:46:00,
2013-04-29 20:51:00,66.3,52.0,30.00,SSE,162,6.9,8.1,62,0.00,,,0.00,TxWx,2013-04-30 01:51:00,
2013-04-29 20:56:00,66.1,53.0,30.00,SSE,162,10.2,10.5,63,0.00,,,0.00,TxWx,2013-04-30 01:56:00,
2013-04-29 21:01:00,65.9,53.0,30.00,SSE,162,7.8,7.8,63,0.00,,,0.00,TxWx,2013-04-30 02:01:00,
2013-04-29 21:07:00,65.8,53.0,30.00,SSE,162,8.1,8.4,64,0.00,,,0.00,TxWx,2013-04-30 02:07:00,
2013-04-29 21:12:00,65.7,53.0,30.01,SSE,162,9.3,9.9,64,0.00,,,0.00,TxWx,2013-04-30 02:12:00,
2013-04-29 21:17:00,65.6,54.0,30.01,SSE,162,11.1,12.0,65,0.00,,,0.00,TxWx,2013-04-30 02:17:00,
2013-04-29 21:22:00,65.5,53.0,30.01,SSE,162,9.3,9.3,65,0.00,,,0.00,TxWx,2013-04-30 02:22:00,
2013-04-29 21:28:00,65.4,53.0,30.01,SSE,162,9.0,10.2,65,0.00,,,0.00,TxWx,2013-04-30 02:28:00,
2013-04-29 21:33:00,65.4,53.0,30.01,SSE,162,12.6,12.6,65,0.00,,,0.00,TxWx,2013-04-30 02:33:00,
2013-04-29 21:38:00,65.2,53.0,30.01,SSE,162,8.4,10.2,66,0.00,,,0.00,TxWx,2013-04-30 02:38:00,
2013-04-29 21:43:00,65.2,53.0,30.01,SSE,162,9.3,9.3,66,0.00,,,0.00,TxWx,2013-04-30 02:43:00,
2013-04-29 21:48:00,65.1,53.0,30.01,SSE,163,8.7,9.6,66,0.00,,,0.00,TxWx,2013-04-30 02:48:00,
2013-04-29 21:53:00,65.0,53.0,30.01,SSE,162,10.2,10.2,66,0.00,,,0.00,TxWx,2013-04-30 02:53:00,
2013-04-29 21:58:00,65.1,53.0,30.01,SSE,162,9.6,12.0,66,0.00,,,0.00,TxWx,2013-04-30 02:58:00,
2013-04-29 22:03:00,65.0,53.0,30.01,SSE,162,7.2,7.2,66,0.00,,,0.00,TxWx,2013-04-30 03:03:00,
2013-04-29 22:09:00,65.0,53.0,30.00,SSE,163,15.0,15.0,66,0.00,,,0.00,TxWx,2013-04-30 03:09:00,
2013-04-29 22:14:00,64.9,53.0,30.01,SSE,162,9.0,9.3,66,0.00,,,0.00,TxWx,2013-04-30 03:14:00,
2013-04-29 22:19:00,64.8,53.0,30.01,SSE,162,12.9,14.1,66,0.00,,,0.00,TxWx,2013-04-30 03:19:00,
2013-04-29 22:24:00,64.7,54.0,30.01,SSE,162,8.1,8.1,67,0.00,,,0.00,TxWx,2013-04-30 03:24:00,
2013-04-29 22:29:00,64.5,53.0,30.01,SSE,163,10.2,10.2,67,0.00,,,0.00,TxWx,2013-04-30 03:29:00,
2013-04-29 22:34:00,64.4,53.0,30.01,SSE,163,11.1,11.4,67,0.00,,,0.00,TxWx,2013-04-30 03:34:00,
2013-04-29 22:40:00,64.3,53.0,30.01,SSE,163,9.0,10.5,67,0.00,,,0.00,TxWx,2013-04-30 03:40:00,
2013-04-29 22:45:00,64.1,53.0,30.01,SSE,163,11.7,12.6,68,0.00,,,0.00,TxWx,2013-04-30 03:45:00,
2013-04-29 22:50:00,64.1,53.0,30.01,SSE,163,9.0,9.6,68,0.00,,,0.00,TxWx,2013-04-30 03:50:00,
2013-04-29 22:55:00,63.9,53.0,30.01,SSE,162,9.3,9.3,68,0.00,,,0.00,TxWx,2013-04-30 03:55:00,
2013-04-29 23:00:00,63.9,53.0,30.00,SSE,162,12.9,13.5,68,0.00,,,0.00,TxWx,2013-04-30 04:00:00,
2013-04-29 23:01:00,63.9,53.0,30.01,SSE,162,9.3,9.3,68,0.00,,,0.00,TxWx,2013-04-30 04:01:00,
2013-04-29 23:02:00,63.9,53.0,30.01,SSE,163,12.9,12.9,68,0.00,,,0.00,TxWx,2013-04-30 04:02:00,
2013-04-29 23:07:00,63.8,53.0,30.01,SSE,163,9.0,9.3,68,0.00,,,0.00,TxWx,2013-04-30 04:07:00,
2013-04-29 23:12:00,63.7,53.0,30.00,SSE,162,5.7,5.7,69,0.00,,,0.00,TxWx,2013-04-30 04:12:00,
2013-04-29 23:18:00,63.6,53.0,30.00,SSE,162,8.1,8.1,69,0.00,,,0.00,TxWx,2013-04-30 04:18:00,
2013-04-29 23:23:00,63.5,53.0,30.00,SSE,163,10.2,10.2,69,0.00,,,0.00,TxWx,2013-04-30 04:23:00,
2013-04-29 23:28:00,63.5,52.0,30.00,SSE,162,7.5,7.5,69,0.00,,,0.00,TxWx,2013-04-30 04:28:00,
2013-04-29 23:33:00,63.6,53.0,30.01,SSE,162,10.8,10.8,69,0.00,,,0.00,TxWx,2013-04-30 04:33:00,
2013-04-29 23:38:00,63.6,53.0,30.01,SSE,163,9.6,9.6,68,0.00,,,0.00,TxWx,2013-04-30 04:38:00,
2013-04-29 23:44:00,63.5,53.0,30.01,SSE,162,12.3,13.2,68,0.00,,,0.00,TxWx,2013-04-30 04:44:00,
2013-04-29 23:49:00,63.4,52.0,30.00,SSE,162,10.2,11.4,69,0.00,,,0.00,TxWx,2013-04-30 04:49:00,
2013-04-29 23:54:00,63.2,52.0,30.00,SSE,162,10.2,10.8,69,0.00,,,0.00,TxWx,2013-04-30 04:54:00,
2013-04-29 23:59:00,63.3,52.0,30.00,SSE,163,15.3,15.3,69,0.00,,,0.00,TxWx,2013-04-30 04:59:00,